createdAt,value
2023-04-26T00:03:19.210Z,3.28
2023-04-26T00:08:23.972Z,3.31
2023-04-26T00:13:27.263Z,3.32
2023-04-26T00:18:31.720Z,3.31
2023-04-26T00:23:36.728Z,3.24
2023-04-26T00:28:39.956Z,3.26
2023-04-26T00:33:44.321Z,3.26
2023-04-26T00:38:49.281Z,3.27
2023-04-26T00:43:52.627Z,3.21
2023-04-26T00:48:56.332Z,3.25
2023-04-26T00:54:01.338Z,3.17
2023-04-26T00:59:04.917Z,3.07
2023-04-26T01:04:08.484Z,3.12
2023-04-26T01:09:15.496Z,2.96
2023-04-26T01:14:19.707Z,2.77
2023-04-26T01:19:23.505Z,2.63
2023-04-26T01:24:28.537Z,2.32
2023-04-26T01:29:33.200Z,2.22
2023-04-26T01:34:37.383Z,1.96
2023-04-26T01:39:42.278Z,1.80
2023-04-26T01:44:45.818Z,1.58
2023-04-26T01:49:48.997Z,1.39
2023-04-26T01:54:53.853Z,1.26
2023-04-26T01:59:57.224Z,1.12
2023-04-26T02:05:02.465Z,1.02
2023-04-26T02:10:08.535Z,0.98
2023-04-26T02:15:12.762Z,0.74
2023-04-26T02:20:16.637Z,0.58
2023-04-26T02:25:21.643Z,0.62
2023-04-26T02:30:24.930Z,0.41
2023-04-26T02:35:28.452Z,0.37
2023-04-26T02:40:33.196Z,0.41
2023-04-26T02:45:42.492Z,0.30
2023-04-26T02:50:48.684Z,0.32
2023-04-26T02:55:54.317Z,0.18
2023-04-26T03:01:01.027Z,0.20
2023-04-26T03:06:05.572Z,0.14
2023-04-26T03:11:10.712Z,0.07
2023-04-26T03:16:14.303Z,-0.03
2023-04-26T03:21:17.787Z,-0.05
2023-04-26T03:26:22.567Z,-0.08
2023-04-26T03:31:26.105Z,-0.21
2023-04-26T03:36:29.902Z,-0.23
2023-04-26T03:41:37.198Z,-0.14
2023-04-26T03:46:42.139Z,-0.08
2023-04-26T03:51:45.582Z,0.00
2023-04-26T03:56:50.317Z,0.15
2023-04-26T04:01:54.220Z,0.27
2023-04-26T04:06:57.786Z,0.17
2023-04-26T04:12:03.197Z,0.03
2023-04-26T04:17:07.584Z,0.00
2023-04-26T04:22:10.916Z,0.01
2023-04-26T04:27:16.769Z,-0.03
2023-04-26T04:32:23.975Z,0.04
2023-04-26T04:37:29.567Z,0.06
2023-04-26T04:42:35.134Z,0.08
2023-04-26T04:47:41.194Z,0.20
2023-04-26T04:52:44.663Z,0.25
2023-04-26T04:57:49.702Z,0.27
2023-04-26T05:02:53.449Z,0.41
2023-04-26T05:07:57.138Z,0.46
2023-04-26T05:13:02.074Z,0.43
2023-04-26T05:18:06.081Z,0.27
2023-04-26T05:23:09.520Z,0.67
2023-04-26T05:28:14.458Z,0.76
2023-04-26T05:33:36.023Z,0.89
2023-04-26T05:38:54.275Z,1.13
2023-04-26T05:43:59.168Z,1.63
2023-04-26T05:49:02.819Z,2.74
2023-04-26T05:54:06.157Z,3.87
2023-04-26T05:59:12.230Z,4.95
2023-04-26T06:04:15.737Z,4.72
2023-04-26T06:09:33.486Z,5.09
2023-04-26T06:14:38.150Z,6.00
2023-04-26T06:19:44.748Z,6.96
2023-04-26T06:24:48.588Z,8.32
2023-04-26T06:29:53.261Z,8.87
2023-04-26T06:34:57.500Z,9.76
2023-04-26T06:40:01.582Z,10.55
2023-04-26T06:45:07.222Z,10.22
2023-04-26T06:50:12.315Z,10.69
2023-04-26T06:55:15.728Z,11.77
2023-04-26T07:00:21.480Z,10.41
2023-04-26T07:05:24.892Z,9.02
2023-04-26T07:10:28.235Z,8.69
2023-04-26T07:15:33.178Z,7.94
2023-04-26T07:20:36.451Z,7.62
2023-04-26T07:25:39.945Z,7.15
2023-04-26T07:30:45.011Z,7.25
2023-04-26T07:35:56.601Z,7.41
2023-04-26T07:41:01.337Z,6.68
2023-04-26T07:46:06.076Z,6.64
2023-04-26T07:51:10.094Z,7.29
2023-04-26T07:56:13.687Z,8.75
2023-04-26T08:01:18.583Z,8.62
2023-04-26T08:06:22.430Z,8.64
2023-04-26T08:11:25.985Z,8.03
2023-04-26T08:16:31.091Z,7.64
2023-04-26T08:21:34.573Z,8.28
2023-04-26T08:26:37.834Z,7.96
2023-04-26T08:31:42.941Z,7.79
2023-04-26T08:36:46.789Z,7.93
2023-04-26T08:41:54.281Z,8.34
2023-04-26T08:47:07.829Z,7.70
2023-04-26T08:52:13.818Z,7.62
2023-04-26T08:57:17.621Z,7.07
2023-04-26T09:02:23.884Z,6.81
2023-04-26T09:07:33.840Z,7.48
2023-04-26T09:12:37.176Z,7.93
2023-04-26T09:17:42.256Z,7.92
2023-04-26T09:22:45.601Z,8.01
2023-04-26T09:27:48.970Z,8.13
2023-04-26T09:32:55.969Z,8.75
2023-04-26T09:38:07.962Z,8.04
2023-04-26T09:43:18.945Z,7.94
2023-04-26T09:48:25.990Z,8.69
2023-04-26T09:53:31.132Z,8.48
2023-04-26T09:58:34.592Z,8.06
2023-04-26T10:03:39.578Z,8.33
2023-04-26T10:08:43.592Z,8.54
2023-04-26T10:13:46.879Z,8.01
2023-04-26T10:18:51.830Z,8.34
2023-04-26T10:23:55.600Z,8.44
2023-04-26T10:29:02.549Z,8.24
2023-04-26T10:34:21.530Z,8.86
2023-04-26T10:39:25.968Z,9.01
2023-04-26T10:44:45.864Z,8.71
2023-04-26T10:49:51.896Z,8.71
2023-04-26T10:54:57.018Z,9.32
2023-04-26T11:00:32.019Z,9.31
2023-04-26T11:05:55.463Z,9.83
2023-04-26T11:11:06.718Z,9.99
2023-04-26T11:16:11.153Z,9.67
2023-04-26T11:21:18.808Z,9.69
2023-04-26T11:26:22.114Z,9.52
2023-04-26T11:31:25.371Z,9.01
2023-04-26T11:36:30.027Z,9.73
2023-04-26T11:41:33.375Z,10.03
2023-04-26T11:46:36.669Z,9.91
2023-04-26T11:51:41.775Z,10.34
2023-04-26T11:56:45.482Z,10.23
2023-04-26T12:01:52.549Z,9.75
2023-04-26T12:06:57.899Z,10.33
2023-04-26T12:12:03.880Z,9.74
2023-04-26T12:17:08.603Z,10.08
2023-04-26T12:22:13.317Z,9.87
2023-04-26T12:27:22.939Z,10.23
2023-04-26T12:32:27.023Z,10.40
2023-04-26T12:37:31.723Z,11.15
2023-04-26T12:42:35.048Z,10.05
2023-04-26T12:47:38.609Z,10.31
2023-04-26T12:52:45.037Z,10.32
2023-04-26T12:57:48.921Z,10.77
2023-04-26T13:02:52.545Z,11.05
2023-04-26T13:07:57.387Z,11.56
2023-04-26T13:13:00.626Z,11.24
2023-04-26T13:18:03.882Z,11.38
2023-04-26T13:23:09.424Z,10.95
2023-04-26T13:28:13.036Z,9.91
2023-04-26T13:33:16.448Z,10.36
2023-04-26T13:38:21.171Z,10.34
2023-04-26T13:43:24.833Z,10.32
2023-04-26T13:48:28.184Z,10.62
2023-04-26T13:53:32.763Z,10.50
2023-04-26T13:58:36.139Z,9.93
2023-04-26T14:03:39.597Z,10.07
2023-04-26T14:08:45.643Z,10.68
2023-04-26T14:13:48.883Z,9.68
2023-04-26T14:18:52.359Z,9.56
2023-04-26T14:23:58.286Z,10.90
2023-04-26T14:29:02.285Z,11.70
2023-04-26T14:34:05.535Z,11.91
2023-04-26T14:39:10.400Z,10.80
2023-04-26T14:44:13.682Z,10.39
2023-04-26T14:49:16.968Z,10.30
2023-04-26T14:54:21.752Z,9.94
2023-04-26T14:59:25.217Z,10.55
2023-04-26T15:04:28.858Z,9.60
2023-04-26T15:09:33.915Z,9.53
2023-04-26T15:14:37.357Z,9.51
2023-04-26T15:19:41.062Z,9.64
2023-04-26T15:24:45.938Z,10.03
2023-04-26T15:30:04.829Z,9.78
2023-04-26T15:35:09.325Z,10.14
2023-04-26T15:40:14.686Z,10.90
2023-04-26T15:45:17.900Z,10.11
2023-04-26T15:50:21.492Z,9.78
2023-04-26T15:55:26.263Z,10.05
2023-04-26T16:00:31.801Z,10.74
2023-04-26T16:05:35.427Z,10.25
2023-04-26T16:10:41.169Z,9.67
2023-04-26T16:15:45.443Z,9.55
2023-04-26T16:20:48.691Z,9.53
2023-04-26T16:25:56.297Z,9.63
2023-04-26T16:30:59.853Z,9.21
2023-04-26T16:36:03.724Z,9.35
2023-04-26T16:41:08.791Z,9.34
2023-04-26T16:46:12.307Z,9.26
2023-04-26T16:51:15.977Z,9.10
2023-04-26T16:56:20.977Z,9.06
2023-04-26T17:01:24.341Z,9.00
2023-04-26T17:06:27.616Z,8.71
2023-04-26T17:11:32.505Z,8.75
2023-04-26T17:16:35.875Z,8.56
2023-04-26T17:21:39.602Z,8.40
2023-04-26T17:26:44.747Z,8.12
2023-04-26T17:31:48.203Z,7.87
2023-04-26T17:36:54.470Z,8.12
2023-04-26T17:41:59.112Z,7.58
2023-04-26T17:47:04.110Z,7.49
2023-04-26T17:52:08.080Z,7.34
2023-04-26T17:57:13.122Z,7.24
2023-04-26T18:02:16.831Z,6.86
2023-04-26T18:07:20.736Z,6.49
2023-04-26T18:12:26.048Z,6.35
2023-04-26T18:17:29.648Z,6.03
2023-04-26T18:22:33.423Z,5.73
2023-04-26T18:27:38.572Z,5.36
2023-04-26T18:32:41.871Z,5.01
2023-04-26T18:37:45.690Z,4.85
2023-04-26T18:42:50.897Z,4.60
2023-04-26T18:47:55.349Z,4.29
2023-04-26T18:52:58.899Z,4.33
2023-04-26T18:58:03.864Z,4.17
2023-04-26T19:03:07.435Z,3.64
2023-04-26T19:08:11.901Z,3.85
2023-04-26T19:13:16.555Z,3.54
2023-04-26T19:18:19.860Z,3.70
2023-04-26T19:23:23.312Z,3.36
2023-04-26T19:28:28.073Z,3.03
2023-04-26T19:33:32.386Z,3.06
2023-04-26T19:38:35.814Z,3.07
2023-04-26T19:43:40.640Z,2.88
2023-04-26T19:48:44.427Z,2.59
2023-04-26T19:53:48.977Z,2.33
2023-04-26T19:58:54.166Z,2.27
2023-04-26T20:03:57.676Z,2.18
2023-04-26T20:09:01.623Z,2.06
2023-04-26T20:14:06.482Z,1.88
2023-04-26T20:19:10.314Z,1.95
2023-04-26T20:24:13.723Z,1.79
2023-04-26T20:29:18.365Z,1.80
2023-04-26T20:34:21.997Z,1.86
2023-04-26T20:39:28.266Z,1.80
2023-04-26T20:44:33.250Z,1.97
2023-04-26T20:49:36.469Z,1.97
2023-04-26T20:54:39.995Z,1.89
2023-04-26T20:59:46.372Z,1.94
2023-04-26T21:04:49.640Z,2.12
2023-04-26T21:09:53.512Z,2.13
2023-04-26T21:14:58.127Z,2.14
2023-04-26T21:20:01.391Z,2.12
2023-04-26T21:25:04.965Z,2.09
2023-04-26T21:30:11.282Z,2.13
2023-04-26T21:35:14.491Z,2.32
2023-04-26T21:40:17.866Z,2.38
2023-04-26T21:45:22.470Z,2.52
2023-04-26T21:50:25.775Z,2.29
2023-04-26T21:55:29.044Z,2.36
2023-04-26T22:00:33.728Z,2.41
2023-04-26T22:05:37.193Z,2.39
2023-04-26T22:10:40.586Z,2.49
2023-04-26T22:15:45.261Z,2.42
2023-04-26T22:20:48.471Z,2.33
2023-04-26T22:25:52.385Z,2.37
2023-04-26T22:30:57.020Z,2.40
2023-04-26T22:36:00.337Z,2.43
2023-04-26T22:41:04.304Z,2.52
2023-04-26T22:46:08.957Z,2.57
2023-04-26T22:51:12.416Z,2.42
2023-04-26T22:56:15.826Z,2.42
2023-04-26T23:01:20.544Z,2.52
2023-04-26T23:06:23.784Z,2.53
2023-04-26T23:11:27.817Z,2.54
2023-04-26T23:16:33.038Z,2.51
2023-04-26T23:21:36.359Z,2.53
2023-04-26T23:26:39.718Z,2.53
2023-04-26T23:31:44.281Z,2.47
2023-04-26T23:36:47.486Z,2.62
2023-04-26T23:41:50.815Z,2.55
2023-04-26T23:46:55.597Z,2.61
2023-04-26T23:51:59.129Z,2.57
2023-04-26T23:57:04.144Z,2.53
